Elkhart, Illinois
Current Conditions -  °F | °C
As of 11:35 PM on Sunday 19 Oct 2014 (Local Time) from KAAA Reporting Station
Broken Clouds Broken Clouds  
Wind Chill: 54°   Ceiling: 8500
Heat Index: 54°   Visibility: 10mi
Dew Point: 46°   Wind: 6mph
Humidity: 74%   Direction: 190°S
Pressure: 29.97"   Gusts: NA
Location:  40.02°N, 89.48°W
Report Text: KAAA 200435Z AUTO 19005KT 10SM BKN085 12/08 A2997 RMK AO2 T01210076
Loading
Personal Weather Stations






























Interactive Weather Map
Tropical Storm Tracking
New forecast layout! Learn more

10-Day Weather Forecast

Advertisements
Track Severe Weather on mobile